Time;durP1;ratioP1;P1;durP2;ratioP2;P2;SDS_P1;SDS_P2;PMS_P1;PMS_P2;Temp;Humidity;BMP_temperature;BMP_pressure;BME280_temperature;BME280_humidity;BME280_pressure;Samples;Min_cycle;Max_cycle;Signal;HPM_P1;HPM_P2
2023/05/23 00:02:27;;;;;;;;;;;;;;;14.63;92.97;98987.84;4350320;32;32150;-96
2023/05/23 00:04:57;;;;;;;;;;;;;;;14.65;90.77;98980.78;4362730;32;34832;-95
2023/05/23 00:07:25;;;;;;;;;;;;;;;14.93;89.75;98982.44;4363638;32;35934;-95
2023/05/23 00:09:53;;;;;;;;;;;;;;;14.47;93.58;98981.34;4350226;32;35793;-95
2023/05/23 00:12:21;;;;;;;;;;;;;;;14.70;92.48;98983.22;4361774;32;33447;-96
2023/05/23 00:14:52;;;;;;;;;;;;;;;15.08;89.39;98983.69;4362929;32;35005;-95
2023/05/23 00:17:20;;;;;;;;;;;;;;;14.73;90.19;98977.88;4362645;32;35966;-95
2023/05/23 00:19:49;;;;;;;;;;;;;;;14.47;92.62;98976.09;4362187;32;34593;-96
2023/05/23 00:22:17;;;;;;;;;;;;;;;14.21;95.15;98980.41;4363534;32;33330;-95
2023/05/23 00:24:44;;;;;;;;;;;;;;;14.73;90.74;98981.34;4362371;32;35033;-95
2023/05/23 00:27:13;;;;;;;;;;;;;;;13.94;96.98;98976.88;4350056;32;35185;-95
2023/05/23 00:29:40;;;;;;;;;;;;;;;13.86;98.92;98978.88;4363261;32;34638;-95
2023/05/23 00:32:08;;;;;;;;;;;;;;;14.04;95.91;98973.06;4363302;32;33795;-95
2023/05/23 00:34:37;;;;;;;;;;;;;;;14.76;91.44;98975.19;4349885;32;32799;-94
2023/05/23 00:37:05;;;;;;;;;;;;;;;14.22;93.83;98976.88;4362072;32;35204;-94
2023/05/23 00:39:33;;;;;;;;;;;;;;;14.37;94.13;98970.31;4363186;32;34489;-94
2023/05/23 00:42:03;;;;;;;;;;;;;;;14.03;96.35;98976.62;4362045;32;33163;-95
2023/05/23 00:44:31;;;;;;;;;;;;;;;13.83;98.77;98974.59;4362144;32;34572;-95
2023/05/23 00:46:59;;;;;;;;;;;;;;;14.56;92.38;98981.06;4361942;32;35274;-96
2023/05/23 00:49:27;;;;;;;;;;;;;;;14.74;89.75;98984.84;4363116;32;34488;-95
2023/05/23 00:51:55;;;;;;;;;;;;;;;14.68;90.54;98983.31;4363256;32;33013;-94
2023/05/23 00:54:24;;;;;;;;;;;;;;;14.69;89.98;98986.78;4361874;32;34979;-95
2023/05/23 00:56:53;;;;;;;;;;;;;;;14.42;91.94;98981.50;4333943;32;943705;-96
2023/05/23 00:59:21;;;;;;;;;;;;;;;14.75;89.95;98983.94;4361477;32;35411;-95
2023/05/23 01:01:49;;;;;;;;;;;;;;;14.95;88.28;98983.28;4361762;32;33260;-95
2023/05/23 01:04:23;;;;;;;;;;;;;;;14.86;88.05;98983.56;4349625;32;32812;-95
2023/05/23 01:06:53;;;;;;;;;;;;;;;14.39;90.51;98979.81;4363085;32;35249;-95
2023/05/23 01:09:22;;;;;;;;;;;;;;;14.79;90.23;98989.03;4361634;32;35145;-94
2023/05/23 01:11:58;;;;;;;;;;;;;;;14.08;95.20;98984.31;4361629;32;33323;-95
2023/05/23 01:14:42;;;;;;;;;;;;;;;13.89;98.67;98973.53;4349503;32;33693;-94
2023/05/23 01:17:12;;;;;;;;;;;;;;;14.27;94.88;98979.37;4361150;32;35259;-95
2023/05/23 01:19:43;;;;;;;;;;;;;;;14.30;94.07;98968.78;4337396;32;34749;-95
2023/05/23 01:22:14;;;;;;;;;;;;;;;14.30;93.39;98963.56;4362566;32;33664;-95
2023/05/23 01:24:54;;;;;;;;;;;;;;;13.53;100.00;98969.34;4362453;32;34529;-94
2023/05/23 01:27:39;;;;;;;;;;;;;;;13.19;100.00;98961.56;4363549;32;35136;-95
2023/05/23 01:30:07;;;;;;;;;;;;;;;14.16;95.17;98964.84;4363553;32;35185;-96
2023/05/23 01:32:35;;;;;;;;;;;;;;;13.24;100.00;98962.31;4363697;32;33391;-96
2023/05/23 01:35:03;;;;;;;;;;;;;;;13.70;100.00;98958.41;4363558;32;34253;-96
2023/05/23 01:37:32;;;;;;;;;;;;;;;13.62;99.11;98957.75;4363520;32;35225;-96
2023/05/23 01:40:00;;;;;;;;;;;;;;;14.03;98.42;98953.91;4364895;32;34605;-94
2023/05/23 01:42:27;;;;;;;;;;;;;;;13.99;97.98;98957.53;4363922;32;33393;-96
2023/05/23 01:44:58;;;;;;;;;;;;;;;14.10;97.24;98951.97;4363527;32;33770;-95
2023/05/23 01:47:26;;;;;;;;;;;;;;;14.18;96.50;98949.09;4363559;32;35246;-96
2023/05/23 01:49:54;;;;;;;;;;;;;;;14.75;90.28;98950.75;4363512;32;34189;-95
2023/05/23 01:52:22;;;;;;;;;;;;;;;13.89;96.73;98958.72;4363541;32;33438;-95
2023/05/23 01:54:50;;;;;;;;;;;;;;;13.39;100.00;98953.19;4339371;32;33952;-96
2023/05/23 01:57:18;;;;;;;;;;;;;;;13.36;100.00;98943.69;4363283;32;36024;-96
2023/05/23 01:59:47;;;;;;;;;;;;;;;13.91;95.95;98956.91;4364499;32;35357;-95
2023/05/23 02:02:15;;;;;;;;;;;;;;;14.13;95.29;98954.44;4351590;32;33288;-95
2023/05/23 02:04:43;;;;;;;;;;;;;;;14.23;93.76;98942.78;4363704;32;34181;-96
2023/05/23 02:07:11;;;;;;;;;;;;;;;13.74;96.23;98948.69;4363562;32;35223;-94
2023/05/23 02:09:39;;;;;;;;;;;;;;;13.83;96.64;98946.63;4363215;32;34454;-95
2023/05/23 02:12:08;;;;;;;;;;;;;;;13.84;96.75;98940.50;4363371;32;33501;-95
2023/05/23 02:14:36;;;;;;;;;;;;;;;13.89;97.79;98947.34;4363416;32;33788;-95
2023/05/23 02:17:04;;;;;;;;;;;;;;;13.86;95.80;98947.47;4351067;32;35140;-95
2023/05/23 02:19:32;;;;;;;;;;;;;;;13.88;95.12;98946.50;4363335;32;34730;-94
2023/05/23 02:22:01;;;;;;;;;;;;;;;14.13;93.07;98941.37;4363183;32;33732;-95
2023/05/23 02:24:29;;;;;;;;;;;;;;;13.77;96.31;98944.22;4351050;32;33150;-95
2023/05/23 02:26:56;;;;;;;;;;;;;;;13.86;97.52;98952.72;4363322;32;35262;-95
2023/05/23 02:29:25;;;;;;;;;;;;;;;14.45;91.29;98943.84;4363356;32;35311;-95
2023/05/23 02:31:52;;;;;;;;;;;;;;;14.49;89.69;98941.09;4363337;32;33389;-96
2023/05/23 02:34:20;;;;;;;;;;;;;;;14.76;87.01;98935.88;4364457;32;34953;-96
2023/05/23 02:36:48;;;;;;;;;;;;;;;14.68;87.32;98943.13;4362604;32;35152;-95
2023/05/23 02:39:16;;;;;;;;;;;;;;;14.58;87.34;98932.97;4364616;32;35417;-95
2023/05/23 02:41:44;;;;;;;;;;;;;;;14.17;90.28;98937.75;4364473;32;33478;-95
2023/05/23 02:44:13;;;;;;;;;;;;;;;14.03;92.49;98934.72;4363127;32;34850;-96
2023/05/23 02:46:41;;;;;;;;;;;;;;;13.86;93.69;98932.63;4363168;32;35924;-96
2023/05/23 02:49:09;;;;;;;;;;;;;;;14.07;91.41;98931.09;4363266;32;34441;-95
2023/05/23 02:51:37;;;;;;;;;;;;;;;14.19;90.51;98928.09;4364296;32;32952;-95
2023/05/23 02:54:05;;;;;;;;;;;;;;;14.39;89.03;98935.28;4350934;32;33026;-95
2023/05/23 02:56:34;;;;;;;;;;;;;;;13.73;93.92;98931.25;4363235;32;35178;-95
2023/05/23 02:59:02;;;;;;;;;;;;;;;13.72;94.79;98933.03;4375107;32;34742;-94
2023/05/23 03:01:30;;;;;;;;;;;;;;;13.82;94.15;98931.84;4364506;32;33703;-95
2023/05/23 03:03:58;;;;;;;;;;;;;;;14.00;92.69;98921.72;4363101;32;34116;-95
2023/05/23 03:06:26;;;;;;;;;;;;;;;13.72;93.75;98924.34;4363316;32;35043;-96
2023/05/23 03:08:55;;;;;;;;;;;;;;;13.64;95.66;98927.16;4363315;32;34710;-95
2023/05/23 03:11:24;;;;;;;;;;;;;;;13.12;100.00;98921.66;4363164;32;33431;-95
2023/05/23 03:13:52;;;;;;;;;;;;;;;13.58;98.52;98925.59;4350957;32;34941;-95
2023/05/23 03:16:21;;;;;;;;;;;;;;;13.76;95.19;98929.41;4362949;32;34572;-96
2023/05/23 03:18:49;;;;;;;;;;;;;;;14.16;91.78;98929.94;4350869;32;33820;-95
2023/05/23 03:21:17;;;;;;;;;;;;;;;13.87;94.07;98930.84;4363422;32;33422;-96
2023/05/23 03:23:45;;;;;;;;;;;;;;;14.60;89.43;98932.91;4364016;32;34135;-96
2023/05/23 03:26:13;;;;;;;;;;;;;;;14.13;92.41;98940.50;4363610;32;34911;-96
2023/05/23 03:28:41;;;;;;;;;;;;;;;14.19;nan;98938.56;4363780;32;34795;-95
2023/05/23 03:31:10;;;;;;;;;;;;;;;13.59;96.62;98935.16;4375622;32;33341;-95
2023/05/23 03:33:38;;;;;;;;;;;;;;;13.47;99.24;98935.53;4362783;32;33308;-96
2023/05/23 03:36:07;;;;;;;;;;;;;;;13.63;100.00;98930.69;4363121;32;35733;-95
2023/05/23 03:38:35;;;;;;;;;;;;;;;13.87;99.68;98925.63;4338938;32;33893;-96
2023/05/23 03:41:03;;;;;;;;;;;;;;;13.82;99.92;98926.63;4363603;32;32236;-96
2023/05/23 03:43:31;;;;;;;;;;;;;;;14.04;98.18;98925.94;4351726;32;34023;-96
2023/05/23 03:46:00;;;;;;;;;;;;;;;14.30;96.21;98927.75;4338812;32;34076;-96
2023/05/23 03:48:30;;;;;;;;;;;;;;;14.11;95.85;98929.25;4351140;32;35918;-96
2023/05/23 03:51:07;;;;;;;;;;;;;;;14.40;95.86;98934.41;4365389;32;34304;-96
2023/05/23 03:53:36;;;;;;;;;;;;;;;14.87;93.24;98928.47;4338924;32;33285;-96
2023/05/23 03:56:04;;;;;;;;;;;;;;;13.98;98.95;98934.84;4351643;32;35158;-96
2023/05/23 03:58:33;;;;;;;;;;;;;;;13.87;100.00;98928.22;4352189;32;33680;-96
2023/05/23 04:01:01;;;;;;;;;;;;;;;14.75;95.64;98931.50;4363622;32;32984;-96
2023/05/23 04:03:33;;;;;;;;;;;;;;;14.37;97.94;98931.88;4365646;32;34053;-96
2023/05/23 04:06:02;;;;;;;;;;;;;;;14.54;97.01;98931.31;4352353;32;34224;-95
2023/05/23 04:08:32;;;;;;;;;;;;;;;15.05;94.32;98928.72;4364971;32;34246;-96
2023/05/23 04:11:02;;;;;;;;;;;;;;;14.46;98.37;98933.34;4340605;32;32066;-96
2023/05/23 04:13:30;;;;;;;;;;;;;;;14.47;100.00;98927.19;4364165;32;34095;-96
2023/05/23 04:16:00;;;;;;;;;;;;;;;14.63;100.00;98931.94;4341307;32;33974;-96
2023/05/23 04:18:29;;;;;;;;;;;;;;;14.63;100.00;98930.19;4352418;32;33550;-96
2023/05/23 04:21:00;;;;;;;;;;;;;;;14.85;100.00;98932.91;4352455;32;34016;-96
2023/05/23 04:23:29;;;;;;;;;;;;;;;15.06;100.00;98927.84;4364739;32;33671;-96
2023/05/23 04:25:57;;;;;;;;;;;;;;;15.21;99.86;98929.88;4353215;32;34381;-96
2023/05/23 04:28:28;;;;;;;;;;;;;;;15.35;98.94;98935.50;4340330;32;33417;-96
2023/05/23 04:31:05;;;;;;;;;;;;;;;15.67;96.96;98924.69;4364399;32;33603;-96
2023/05/23 04:33:55;;;;;;;;;;;;;;;16.15;94.37;98929.00;4354233;32;33077;-95
2023/05/23 04:36:24;;;;;;;;;;;;;;;16.41;92.54;98929.69;4351991;32;35564;-96
2023/05/23 04:38:54;;;;;;;;;;;;;;;17.02;90.23;98929.75;4363312;32;33873;-96
2023/05/23 04:41:22;;;;;;;;;;;;;;;16.83;89.75;98929.69;4350731;32;32693;-96
2023/05/23 04:43:53;;;;;;;;;;;;;;;17.72;86.38;98934.56;4364582;32;34237;-96
2023/05/23 04:46:25;;;;;;;;;;;;;;;18.13;84.68;98935.25;4355558;32;34567;-96
2023/05/23 04:48:59;;;;;;;;;;;;;;;18.24;83.34;98932.09;4368287;32;35254;-96
2023/05/23 04:51:27;;;;;;;;;;;;;;;18.34;81.31;98935.13;4352209;32;32040;-96
2023/05/23 04:54:00;;;;;;;;;;;;;;;18.87;77.37;98934.25;4352374;32;34013;-95
2023/05/23 04:56:28;;;;;;;;;;;;;;;19.36;76.57;98933.47;4353136;32;36617;-96
2023/05/23 04:58:57;;;;;;;;;;;;;;;19.41;73.45;98939.38;4351783;32;33967;-95
2023/05/23 05:01:27;;;;;;;;;;;;;;;19.78;72.35;98933.87;4357597;32;33668;-96
2023/05/23 05:04:27;;;;;;;;;;;;;;;19.63;73.72;98931.12;4341655;33;33096;-96
2023/05/23 05:07:28;;;;;;;;;;;;;;;20.24;72.16;98931.31;4340027;33;36559;-96
2023/05/23 05:10:19;;;;;;;;;;;;;;;20.60;69.54;98928.34;4337217;33;34868;-96
2023/05/23 05:12:48;;;;;;;;;;;;;;;20.47;73.22;98929.97;4336492;33;34431;-96
2023/05/23 05:15:36;;;;;;;;;;;;;;;20.53;71.19;98932.28;4348927;33;34598;-96
2023/05/23 05:18:10;;;;;;;;;;;;;;;20.73;70.81;98932.94;4331704;33;35116;-96
2023/05/23 05:22:02;;;;;;;;;;;;;;;20.99;67.65;98934.87;4346748;33;19984;-96
2023/05/23 05:25:37;;;;;;;;;;;;;;;20.89;69.50;98927.56;4474274;27;33958;-96
2023/05/23 05:29:06;;;;;;;;;;;;;;;21.58;65.87;98936.63;5071649;27;19979;31
2023/05/23 05:38:52;;;;;;;;;;;;;;;21.64;67.65;98940.72;4970612;27;21302;-96
2023/05/23 05:42:24;;;;;;;;;;;;;;;22.07;66.05;98937.97;4378634;27;35215;-96
2023/05/23 05:49:48;;;;;;;;;;;;;;;22.43;63.46;98934.75;4620475;28;19998;-96
2023/05/23 05:57:05;;;;;;;;;;;;;;;23.79;58.54;98933.41;4190394;33;35124;-96
2023/05/23 05:59:55;;;;;;;;;;;;;;;23.83;61.59;98932.28;4350071;28;33977;-96
2023/05/23 06:02:59;;;;;;;;;;;;;;;23.69;59.47;98932.38;4242420;28;32774;-96
2023/05/23 06:13:27;;;;;;;;;;;;;;;24.63;56.08;98937.06;4272290;28;38064;-96
2023/05/23 06:21:15;;;;;;;;;;;;;;;24.97;51.70;98929.16;4357562;28;33889;-96
2023/05/23 06:25:51;;;;;;;;;;;;;;;25.38;53.63;98926.94;4262339;28;34468;-95
2023/05/23 06:28:36;;;;;;;;;;;;;;;25.44;54.89;98932.63;4258429;33;36237;-96
2023/05/23 06:32:25;;;;;;;;;;;;;;;25.49;52.68;98933.13;4327364;28;35222;-96
2023/05/23 06:35:36;;;;;;;;;;;;;;;26.79;46.07;98935.97;4346634;28;34543;-95
2023/05/23 06:39:09;;;;;;;;;;;;;;;27.52;44.84;98927.97;4556011;28;20001;-96
2023/05/23 06:43:11;;;;;;;;;;;;;;;27.34;44.72;98927.78;4300919;33;35214;-96
2023/05/23 06:53:32;;;;;;;;;;;;;;;27.41;48.59;98927.09;4282410;33;35335;-96
2023/05/23 06:57:03;;;;;;;;;;;;;;;27.57;46.73;98925.75;4560675;28;36061;31
2023/05/23 07:04:07;;;;;;;;;;;;;;;28.74;44.97;98923.28;4156248;34;34194;-96
2023/05/23 07:13:49;;;;;;;;;;;;;;;29.22;44.90;98918.81;4252014;29;34417;31
2023/05/23 07:16:46;;;;;;;;;;;;;;;30.09;40.68;98920.28;4297760;29;31884;-96
2023/05/23 07:19:18;;;;;;;;;;;;;;;29.30;44.35;98917.09;4144919;34;32380;-96
2023/05/23 07:25:25;;;;;;;;;;;;;;;29.16;41.48;98914.91;4235431;33;33121;-96
2023/05/23 07:28:40;;;;;;;;;;;;;;;29.17;45.33;98911.22;4280234;28;34199;-96
2023/05/23 07:45:26;;;;;;;;;;;;;;;29.75;42.71;98914.66;4837315;28;19974;-96
2023/05/23 07:48:52;;;;;;;;;;;;;;;29.25;40.05;98914.03;4040964;28;20918;-96
2023/05/23 07:51:25;;;;;;;;;;;;;;;30.06;38.79;98910.66;4238965;33;34868;-96
2023/05/23 07:54:19;;;;;;;;;;;;;;;31.27;37.79;98910.16;4214643;34;20034;-96
2023/05/23 07:57:23;;;;;;;;;;;;;;;31.46;38.52;98909.09;4236736;33;33997;-96
2023/05/23 08:00:04;;;;;;;;;;;;;;;31.21;38.13;98907.28;4239375;33;34332;-96
2023/05/23 08:06:03;;;;;;;;;;;;;;;30.76;37.72;98909.13;4236895;33;33407;-96
2023/05/23 08:09:33;;;;;;;;;;;;;;;29.92;40.39;98910.34;4491806;28;20185;-96
2023/05/23 08:12:48;;;;;;;;;;;;;;;29.88;42.13;98904.44;4228313;34;36132;-96
2023/05/23 08:15:48;;;;;;;;;;;;;;;29.26;41.57;98899.62;4209327;34;36069;-96
2023/05/23 08:18:37;;;;;;;;;;;;;;;30.75;39.02;98902.09;4219640;34;31996;-96
2023/05/23 08:21:08;;;;;;;;;;;;;;;29.38;39.34;98904.81;4217770;34;33080;-96
2023/05/23 08:23:40;;;;;;;;;;;;;;;29.54;39.32;98902.31;4206372;34;34460;-96
2023/05/23 08:26:33;;;;;;;;;;;;;;;29.32;42.62;98900.88;4197236;34;33019;-96
2023/05/23 08:29:04;;;;;;;;;;;;;;;29.08;41.42;98901.34;4208002;34;32163;-96
2023/05/23 08:31:38;;;;;;;;;;;;;;;30.17;40.22;98904.22;4207720;34;32763;-96
2023/05/23 08:34:10;;;;;;;;;;;;;;;29.86;38.77;98901.91;4219204;34;35328;-96
2023/05/23 08:36:47;;;;;;;;;;;;;;;29.06;42.54;98903.31;4210023;34;35641;-94
2023/05/23 08:39:15;;;;;;;;;;;;;;;29.33;39.99;98910.59;4208270;34;33233;-95
2023/05/23 08:41:49;;;;;;;;;;;;;;;29.86;39.48;98909.09;4209200;34;34155;-94
2023/05/23 08:44:18;;;;;;;;;;;;;;;30.27;38.97;98897.94;4210174;34;35299;-96
2023/05/23 08:46:50;;;;;;;;;;;;;;;29.19;39.80;98908.38;4209649;34;34698;-94
2023/05/23 08:49:20;;;;;;;;;;;;;;;28.96;41.58;98906.03;4196954;34;32644;-95
2023/05/23 08:51:57;;;;;;;;;;;;;;;29.35;40.53;98908.63;4209557;34;35316;-95
2023/05/23 08:54:25;;;;;;;;;;;;;;;29.99;40.17;98906.06;4207825;34;36055;-96
2023/05/23 08:56:55;;;;;;;;;;;;;;;30.58;38.75;98901.09;4219487;34;34545;-96
2023/05/23 08:59:25;;;;;;;;;;;;;;;30.45;42.24;98908.72;4206352;34;33280;-95
2023/05/23 09:01:54;;;;;;;;;;;;;;;30.00;40.60;98911.28;4206569;34;34476;-93
2023/05/23 09:04:23;;;;;;;;;;;;;;;28.85;40.62;98909.72;4194376;34;35437;-95
2023/05/23 09:06:59;;;;;;;;;;;;;;;29.36;40.72;98904.09;4211354;34;35719;-94
2023/05/23 09:10:06;;;;;;;;;;;;;;;29.15;42.52;98901.59;4224319;34;33293;-94
2023/05/23 09:12:37;;;;;;;;;;;;;;;28.65;41.43;98905.38;4222410;34;36506;-94
2023/05/23 09:15:10;;;;;;;;;;;;;;;29.37;40.95;98905.81;4292991;28;33394;-94
2023/05/23 09:17:58;;;;;;;;;;;;;;;29.42;38.79;98914.22;4275750;33;34876;-95
2023/05/23 09:20:28;;;;;;;;;;;;;;;28.69;40.44;98901.44;4269160;33;34028;-95
2023/05/23 09:23:33;;;;;;;;;;;;;;;29.66;37.57;98911.84;4264012;33;34269;-94
2023/05/23 09:26:07;;;;;;;;;;;;;;;30.08;39.55;98905.16;4263283;33;35479;-96
2023/05/23 09:28:41;;;;;;;;;;;;;;;29.59;38.41;98905.41;4270749;33;35730;-94
2023/05/23 09:31:11;;;;;;;;;;;;;;;29.94;40.46;98903.00;4262610;33;33303;-96
2023/05/23 09:33:49;;;;;;;;;;;;;;;29.73;40.64;98904.06;4264616;33;34951;-96
2023/05/23 09:36:17;;;;;;;;;;;;;;;30.77;41.05;98908.97;4262314;33;35250;-94
2023/05/23 09:38:47;;;;;;;;;;;;;;;30.09;40.48;98911.34;4262820;33;34665;-96
2023/05/23 09:41:20;;;;;;;;;;;;;;;30.33;39.16;98908.06;4265700;33;33951;-96
2023/05/23 09:43:53;;;;;;;;;;;;;;;29.80;39.63;98909.72;4274621;33;33966;-95
2023/05/23 09:46:26;;;;;;;;;;;;;;;29.64;40.55;98908.47;4265718;33;34834;-96
2023/05/23 09:48:55;;;;;;;;;;;;;;;28.82;43.45;98899.31;4262782;33;35484;-95
2023/05/23 09:51:23;;;;;;;;;;;;;;;28.46;43.19;98898.16;4273904;33;33180;-95
2023/05/23 09:53:52;;;;;;;;;;;;;;;27.69;45.05;98892.56;4273351;33;34963;-96
2023/05/23 09:56:22;;;;;;;;;;;;;;;28.06;42.04;98900.00;4269702;33;35228;-96
2023/05/23 09:58:50;;;;;;;;;;;;;;;28.67;45.65;98895.37;4259975;33;33481;-96
2023/05/23 10:01:18;;;;;;;;;;;;;;;29.48;42.07;98897.56;4247518;33;32131;-95
2023/05/23 10:03:53;;;;;;;;;;;;;;;29.90;42.58;98902.44;4255355;33;34911;-95
2023/05/23 10:06:26;;;;;;;;;;;;;;;30.77;39.28;98903.59;4263198;33;35703;-96
2023/05/23 10:09:04;;;;;;;;;;;;;;;29.50;37.21;98900.94;4276960;33;34710;-95
2023/05/23 10:11:35;;;;;;;;;;;;;;;29.49;38.55;98894.72;4279928;33;32607;-95
2023/05/23 10:14:05;;;;;;;;;;;;;;;30.06;36.92;98891.88;4267805;33;34234;-93
2023/05/23 10:16:52;;;;;;;;;;;;;;;28.48;44.00;98889.00;4259557;33;35481;-94
2023/05/23 10:19:42;;;;;;;;;;;;;;;28.46;44.45;98885.63;4263212;33;34628;-95
2023/05/23 10:22:11;;;;;;;;;;;;;;;30.30;40.17;98876.16;4264894;33;32998;-95
2023/05/23 10:24:41;;;;;;;;;;;;;;;30.71;38.84;98871.13;4263982;33;35131;-95
2023/05/23 10:27:18;;;;;;;;;;;;;;;31.03;35.40;98873.22;4250799;33;34964;-95
2023/05/23 10:29:47;;;;;;;;;;;;;;;31.30;36.77;98874.03;4247253;33;33456;-93
2023/05/23 10:32:21;;;;;;;;;;;;;;;32.22;36.33;98869.62;4260518;33;33525;-95
2023/05/23 10:34:54;;;;;;;;;;;;;;;30.86;36.66;98871.41;4262087;33;34295;-95
2023/05/23 10:37:44;;;;;;;;;;;;;;;31.30;36.43;98874.03;4266035;33;35396;-95
2023/05/23 10:40:37;;;;;;;;;;;;;;;30.45;38.99;98873.81;4266182;33;34563;-96
2023/05/23 10:43:12;;;;;;;;;;;;;;;29.93;43.86;98869.94;4263864;33;32581;-94
2023/05/23 10:45:42;;;;;;;;;;;;;;;28.76;42.17;98869.53;4274927;33;34268;-93
2023/05/23 10:48:21;;;;;;;;;;;;;;;28.55;43.20;98868.75;4263926;33;36221;-96
2023/05/23 10:51:04;;;;;;;;;;;;;;;28.18;44.58;98868.56;4265224;33;35480;-92
2023/05/23 10:53:36;;;;;;;;;;;;;;;29.52;39.78;98866.75;4264198;33;33990;-95
2023/05/23 10:56:08;;;;;;;;;;;;;;;30.49;40.57;98865.25;4275861;33;34151;-94
2023/05/23 10:58:37;;;;;;;;;;;;;;;29.62;39.91;98862.19;4252746;33;34156;-95
2023/05/23 11:01:06;;;;;;;;;;;;;;;29.31;39.24;98858.94;4262907;33;33616;-95
2023/05/23 11:03:35;;;;;;;;;;;;;;;29.61;39.56;98849.75;4261009;33;34110;-94
2023/05/23 11:06:04;;;;;;;;;;;;;;;29.12;41.05;98851.81;4266590;33;33878;-93
2023/05/23 11:08:37;;;;;;;;;;;;;;;29.39;37.56;98856.38;4264729;33;35356;-95
2023/05/23 11:11:16;;;;;;;;;;;;;;;29.30;36.38;98851.91;4265468;33;34722;-96
2023/05/23 11:13:58;;;;;;;;;;;;;;;29.80;37.24;98848.81;4254014;33;33491;-96
2023/05/23 11:16:31;;;;;;;;;;;;;;;30.15;40.77;98846.31;4275975;33;34831;-95
2023/05/23 11:19:19;;;;;;;;;;;;;;;30.34;33.44;98851.56;4254013;33;34741;-95
2023/05/23 11:21:54;;;;;;;;;;;;;;;30.59;34.46;98836.47;4269045;33;35661;-96
2023/05/23 11:24:22;;;;;;;;;;;;;;;31.01;34.27;98832.22;4271108;33;33836;-96
2023/05/23 11:27:02;;;;;;;;;;;;;;;30.27;37.31;98828.09;4265123;33;35727;-95
2023/05/23 11:29:31;;;;;;;;;;;;;;;31.23;37.26;98829.97;4268062;33;35619;-96
2023/05/23 11:31:59;;;;;;;;;;;;;;;30.96;33.60;98829.16;4266249;33;34854;-96
2023/05/23 11:34:28;;;;;;;;;;;;;;;30.00;35.20;98822.69;4266753;33;33690;-96
2023/05/23 11:37:00;;;;;;;;;;;;;;;30.13;38.89;98816.94;4254903;33;34146;-96
2023/05/23 11:39:34;;;;;;;;;;;;;;;30.43;35.03;98818.38;4255484;33;34260;-96
2023/05/23 11:42:03;;;;;;;;;;;;;;;30.86;35.64;98820.34;4265345;33;34722;-96
2023/05/23 11:44:36;;;;;;;;;;;;;;;30.09;36.54;98820.06;4267951;33;34252;-96
2023/05/23 11:47:07;;;;;;;;;;;;;;;30.17;35.29;98812.91;4267950;33;33991;-96
2023/05/23 11:49:59;;;;;;;;;;;;;;;30.47;35.60;98802.78;4264278;33;35551;-96
2023/05/23 11:52:40;;;;;;;;;;;;;;;30.29;36.42;98792.03;4255285;33;35206;-96
2023/05/23 11:55:33;;;;;;;;;;;;;;;31.34;36.49;98789.31;4260985;33;33795;-92
2023/05/23 11:58:18;;;;;;;;;;;;;;;30.54;36.92;98781.50;4265637;33;33908;-94
2023/05/23 12:01:23;;;;;;;;;;;;;;;30.28;35.53;98776.09;4265938;33;36312;-96
2023/05/23 12:04:45;;;;;;;;;;;;;;;30.04;34.98;98775.72;4273685;33;34900;-96
2023/05/23 12:07:24;;;;;;;;;;;;;;;28.71;37.67;98771.69;4255061;33;32095;-94
2023/05/23 12:09:56;;;;;;;;;;;;;;;28.89;37.88;98770.91;4266447;33;34333;-96
2023/05/23 12:12:27;;;;;;;;;;;;;;;30.19;34.37;98757.22;4266595;33;35183;-95
2023/05/23 12:15:01;;;;;;;;;;;;;;;29.16;37.82;98764.75;4273873;33;35364;-96
2023/05/23 12:17:32;;;;;;;;;;;;;;;28.65;39.12;98758.87;4254874;33;33534;-96
2023/05/23 12:20:06;;;;;;;;;;;;;;;28.48;38.61;98757.75;4248229;33;32944;-94
2023/05/23 12:22:35;;;;;;;;;;;;;;;29.14;39.35;98758.66;4258885;33;35007;-96
2023/05/23 12:25:11;;;;;;;;;;;;;;;29.78;39.21;98761.41;4250453;33;34644;-96
2023/05/23 12:27:43;;;;;;;;;;;;;;;30.37;37.43;98754.53;4350440;28;33703;-96
2023/05/23 12:30:18;;;;;;;;;;;;;;;29.30;37.54;98740.09;4283186;33;34277;-96
2023/05/23 12:33:06;;;;;;;;;;;;;;;28.73;38.56;98740.25;4282953;33;35503;-96
2023/05/23 12:35:44;;;;;;;;;;;;;;;28.69;38.47;98741.50;4268757;28;34567;-95
2023/05/23 12:38:36;;;;;;;;;;;;;;;29.29;34.27;98727.69;4265802;33;34123;-96
2023/05/23 12:41:21;;;;;;;;;;;;;;;29.64;34.32;98735.94;4260331;33;34265;-95
2023/05/23 12:44:24;;;;;;;;;;;;;;;30.97;36.47;98734.03;4243461;33;34389;-95
2023/05/23 12:46:56;;;;;;;;;;;;;;;30.38;35.34;98734.72;4254146;33;34902;-96
2023/05/23 12:49:25;;;;;;;;;;;;;;;30.65;35.75;98732.84;4252881;33;33246;-96
2023/05/23 12:51:57;;;;;;;;;;;;;;;30.56;34.92;98725.75;4257541;28;32690;-96
2023/05/23 12:54:28;;;;;;;;;;;;;;;30.39;32.79;98723.00;4254920;33;35674;-95
2023/05/23 12:57:01;;;;;;;;;;;;;;;29.95;34.57;98728.34;4267373;33;34040;-96
2023/05/23 12:59:32;;;;;;;;;;;;;;;30.27;35.03;98718.84;4279624;33;33154;-96
2023/05/23 13:02:01;;;;;;;;;;;;;;;30.71;35.05;98713.41;4279150;33;35354;-95
2023/05/23 13:04:29;;;;;;;;;;;;;;;30.77;33.32;98710.06;4276722;33;35437;-94
2023/05/23 13:06:59;;;;;;;;;;;;;;;30.88;33.10;98708.09;4267527;33;34566;-96
2023/05/23 13:09:31;;;;;;;;;;;;;;;29.96;32.46;98694.28;4270288;33;34285;-95
2023/05/23 13:12:15;;;;;;;;;;;;;;;30.06;32.49;98703.94;4282578;33;34587;-95
2023/05/23 13:14:57;;;;;;;;;;;;;;;29.80;34.79;98692.31;4267540;33;35289;-95
2023/05/23 13:17:31;;;;;;;;;;;;;;;29.49;33.39;98690.84;4250985;33;35873;-93
2023/05/23 13:20:17;;;;;;;;;;;;;;;29.80;33.54;98684.25;4282755;33;33353;-95
2023/05/23 13:23:05;;;;;;;;;;;;;;;29.94;35.44;98694.44;4271855;33;34263;-95
2023/05/23 13:26:00;;;;;;;;;;;;;;;29.94;33.32;98691.75;4271510;33;35221;-94
2023/05/23 13:28:42;;;;;;;;;;;;;;;30.63;32.64;98694.56;4258268;33;34494;-95
2023/05/23 13:31:54;;;;;;;;;;;;;;;30.66;33.04;98678.12;4268893;33;32278;-96
2023/05/23 13:34:52;;;;;;;;;;;;;;;31.05;28.75;98682.97;4257859;33;33199;-95
2023/05/23 13:37:30;;;;;;;;;;;;;;;30.48;33.08;98685.41;4262029;33;35594;-96
2023/05/23 13:40:25;;;;;;;;;;;;;;;30.22;31.94;98679.03;4259258;33;34892;-95
2023/05/23 13:43:18;;;;;;;;;;;;;;;30.08;30.22;98689.50;4266893;33;33506;-96
2023/05/23 13:46:07;;;;;;;;;;;;;;;29.76;33.68;98693.62;4251969;33;34033;-96
2023/05/23 14:10:16;;;;;;;;;;;;;;;;;;;;;
2023/05/23 14:16:17;;;;;;;;;;;;;;;30.45;35.30;98681.19;4087181;31;20001;-94
2023/05/23 14:18:46;;;;;;;;;;;;;;;30.62;35.19;98676.75;4247352;33;35828;-95
2023/05/23 14:21:14;;;;;;;;;;;;;;;30.89;33.80;98672.16;4246623;33;32018;-95
2023/05/23 14:23:43;;;;;;;;;;;;;;;30.60;33.67;98674.22;4246028;33;32689;-93
2023/05/23 14:26:14;;;;;;;;;;;;;;;29.85;33.64;98668.53;4259303;33;36474;-95
2023/05/23 14:28:50;;;;;;;;;;;;;;;29.71;34.49;98661.03;4269911;33;34829;-96
2023/05/23 14:31:23;;;;;;;;;;;;;;;29.52;35.38;98659.34;4251357;33;32844;-95
2023/05/23 14:33:52;;;;;;;;;;;;;;;29.39;35.83;98665.09;4269855;33;34910;-96
2023/05/23 14:36:20;;;;;;;;;;;;;;;29.66;35.96;98664.16;4256805;33;35251;-95
2023/05/23 14:38:50;;;;;;;;;;;;;;;29.33;36.76;98671.06;4260328;33;34629;-95
2023/05/23 14:41:21;;;;;;;;;;;;;;;28.95;36.67;98670.31;4270095;33;34033;-96
2023/05/23 14:43:50;;;;;;;;;;;;;;;28.15;38.96;98668.94;4252157;33;33073;-95
2023/05/23 14:46:47;;;;;;;;;;;;;;;28.54;38.70;98658.13;4250764;33;36343;-95
2023/05/23 14:49:31;;;;;;;;;;;;;;;28.59;37.18;98654.13;4260885;33;34282;-95
2023/05/23 14:52:11;;;;;;;;;;;;;;;28.93;35.07;98652.53;4263168;33;33072;-96
2023/05/23 14:54:56;;;;;;;;;;;;;;;28.74;37.41;98658.00;4254759;33;34088;-95
2023/05/23 14:57:24;;;;;;;;;;;;;;;29.08;38.70;98654.69;4272400;33;35166;-93
2023/05/23 15:00:04;;;;;;;;;;;;;;;29.42;37.57;98646.00;4270744;33;35280;-96
2023/05/23 15:02:33;;;;;;;;;;;;;;;29.16;38.52;98652.16;4274000;33;33370;-95
2023/05/23 15:05:05;;;;;;;;;;;;;;;29.68;38.67;98654.97;4255131;33;35257;-96
2023/05/23 15:07:34;;;;;;;;;;;;;;;29.26;36.02;98646.69;4261873;33;36329;-96
2023/05/23 15:10:07;;;;;;;;;;;;;;;28.96;36.66;98651.41;4266009;33;34138;-96
2023/05/23 15:12:38;;;;;;;;;;;;;;;29.73;38.19;98653.66;4259613;33;33646;-96
2023/05/23 15:15:25;;;;;;;;;;;;;;;29.57;38.04;98660.56;4245292;33;32970;-95